createdAt,value
2023-05-09T00:01:24.528Z,10.75
2023-05-09T00:03:53.648Z,14.55
2023-05-09T00:06:20.404Z,11.38
2023-05-09T00:08:47.100Z,10.85
2023-05-09T00:11:13.884Z,11.00
2023-05-09T00:13:41.893Z,13.10
2023-05-09T00:16:09.285Z,9.85
2023-05-09T00:18:37.525Z,11.48
2023-05-09T00:21:04.514Z,11.45
2023-05-09T00:23:31.290Z,9.77
2023-05-09T00:25:59.210Z,8.73
2023-05-09T00:28:25.919Z,9.25
2023-05-09T00:30:52.655Z,10.85
2023-05-09T00:33:20.630Z,9.57
2023-05-09T00:35:47.445Z,11.18
2023-05-09T00:38:14.331Z,11.82
2023-05-09T00:40:41.045Z,11.88
2023-05-09T00:43:07.846Z,9.18
2023-05-09T00:45:34.629Z,12.57
2023-05-09T00:48:01.367Z,11.07
2023-05-09T00:50:28.434Z,9.95
2023-05-09T00:52:55.166Z,11.57
2023-05-09T00:55:23.126Z,8.52
2023-05-09T00:57:49.792Z,10.60
2023-05-09T01:00:18.777Z,10.38
2023-05-09T01:02:50.383Z,11.52
2023-05-09T01:07:57.103Z,8.15
2023-05-09T01:10:55.674Z,10.30
2023-05-09T01:13:49.196Z,10.85
2023-05-09T01:16:39.829Z,15.00
2023-05-09T01:20:02.720Z,8.23
2023-05-09T01:22:34.921Z,8.20
2023-05-09T01:25:32.697Z,9.55
2023-05-09T01:28:22.791Z,12.35
2023-05-09T01:30:51.803Z,8.85
2023-05-09T01:33:19.626Z,10.30
2023-05-09T01:35:52.845Z,13.73
2023-05-09T01:38:22.458Z,12.40
2023-05-09T01:40:52.947Z,10.90
2023-05-09T01:43:20.811Z,13.70
2023-05-09T01:45:48.886Z,13.30
2023-05-09T01:48:16.032Z,16.15
2023-05-09T01:50:45.836Z,17.70
2023-05-09T01:53:14.012Z,17.08
2023-05-09T01:55:41.594Z,15.57
2023-05-09T01:58:08.490Z,18.48
2023-05-09T02:05:11.261Z,18.15
2023-05-09T02:07:38.948Z,18.50
2023-05-09T02:10:08.092Z,17.25
2023-05-09T02:15:05.911Z,16.17
2023-05-09T02:17:32.921Z,29.17
2023-05-09T02:19:59.828Z,19.92
2023-05-09T02:22:27.187Z,24.45
2023-05-09T02:24:53.992Z,20.33
2023-05-09T02:27:21.328Z,20.33
2023-05-09T02:29:52.484Z,23.60
2023-05-09T02:32:25.811Z,20.85
2023-05-09T02:34:53.687Z,15.98
2023-05-09T02:37:21.364Z,11.90
2023-05-09T02:39:48.520Z,16.38
2023-05-09T02:42:22.594Z,14.02
2023-05-09T02:44:49.430Z,22.92
2023-05-09T02:47:16.187Z,16.73
2023-05-09T02:49:42.914Z,12.65
2023-05-09T02:52:10.977Z,27.20
2023-05-09T02:54:38.636Z,18.77
2023-05-09T02:57:05.830Z,20.27
2023-05-09T02:59:33.084Z,23.27
2023-05-09T03:02:02.359Z,15.93
2023-05-09T03:04:30.474Z,25.80
2023-05-09T03:06:57.261Z,22.88
2023-05-09T03:09:26.842Z,21.15
2023-05-09T03:11:54.934Z,31.40
2023-05-09T03:14:21.631Z,12.68
2023-05-09T03:16:48.573Z,18.10
2023-05-09T03:19:23.999Z,20.67
2023-05-09T03:21:51.016Z,18.63
2023-05-09T03:24:18.084Z,21.90
2023-05-09T03:26:44.801Z,17.88
2023-05-09T03:29:11.567Z,26.25
2023-05-09T03:31:39.047Z,17.38
2023-05-09T03:34:06.315Z,23.13
2023-05-09T03:36:33.137Z,18.85
2023-05-09T03:39:01.180Z,19.85
2023-05-09T03:41:28.295Z,19.25
2023-05-09T03:43:56.148Z,16.55
2023-05-09T03:46:22.890Z,19.67
2023-05-09T03:48:50.250Z,21.50
2023-05-09T03:51:17.605Z,18.05
2023-05-09T03:53:47.022Z,14.18
2023-05-09T03:56:14.998Z,20.67
2023-05-09T03:58:47.499Z,26.02
2023-05-09T04:01:15.703Z,22.58
2023-05-09T04:03:43.178Z,19.73
2023-05-09T04:06:11.576Z,22.05
2023-05-09T04:08:42.629Z,22.20
2023-05-09T04:11:09.466Z,15.82
2023-05-09T04:13:40.427Z,20.23
2023-05-09T04:16:20.626Z,18.90
2023-05-09T04:18:47.398Z,16.38
2023-05-09T04:21:14.957Z,21.00
2023-05-09T04:23:43.685Z,20.52
2023-05-09T04:26:13.847Z,19.58
2023-05-09T04:28:42.631Z,22.60
2023-05-09T04:31:09.973Z,17.48
2023-05-09T04:33:39.025Z,13.27
2023-05-09T04:36:06.172Z,19.27
2023-05-09T04:38:33.333Z,27.90
2023-05-09T04:41:01.186Z,19.00
2023-05-09T04:43:28.246Z,9.98
2023-05-09T04:45:55.253Z,18.73
2023-05-09T04:48:23.474Z,8.10
2023-05-09T04:50:50.377Z,17.23
2023-05-09T04:53:17.129Z,22.38
2023-05-09T04:55:45.411Z,12.95
2023-05-09T04:58:12.421Z,19.58
2023-05-09T05:00:39.318Z,17.65
2023-05-09T05:03:07.502Z,10.98
2023-05-09T05:05:37.187Z,16.70
2023-05-09T05:08:05.257Z,15.32
2023-05-09T05:10:36.159Z,11.52
2023-05-09T05:13:07.522Z,12.73
2023-05-09T05:15:37.564Z,15.07
2023-05-09T05:18:05.249Z,18.15
2023-05-09T05:20:35.224Z,16.92
2023-05-09T05:23:02.089Z,20.15
2023-05-09T05:25:28.980Z,16.45
2023-05-09T05:27:56.978Z,16.92
2023-05-09T05:30:23.753Z,22.25
2023-05-09T05:32:51.234Z,22.77
2023-05-09T05:35:23.293Z,14.98
2023-05-09T05:40:18.383Z,23.88
2023-05-09T05:42:48.125Z,17.27
2023-05-09T05:45:15.169Z,20.58
2023-05-09T05:47:46.373Z,15.15
2023-05-09T05:50:13.908Z,22.60
2023-05-09T05:52:44.349Z,22.20
2023-05-09T05:55:14.611Z,21.77
2023-05-09T05:57:42.631Z,20.10
2023-05-09T06:00:14.882Z,21.30
2023-05-09T06:02:47.947Z,18.27
2023-05-09T06:05:22.216Z,16.90
2023-05-09T06:07:50.235Z,20.67
2023-05-09T06:10:17.189Z,15.30
2023-05-09T06:12:45.537Z,23.38
2023-05-09T06:15:12.911Z,21.80
2023-05-09T06:17:43.604Z,24.00
2023-05-09T06:20:10.782Z,24.83
2023-05-09T06:22:38.275Z,17.60
2023-05-09T06:25:06.894Z,20.00
2023-05-09T06:27:34.889Z,20.85
2023-05-09T06:30:06.161Z,21.85
2023-05-09T06:32:38.106Z,21.52
2023-05-09T06:35:05.480Z,13.50
2023-05-09T06:37:35.389Z,17.77
2023-05-09T06:40:02.276Z,13.95
2023-05-09T06:42:30.060Z,21.65
2023-05-09T06:44:56.854Z,17.98
2023-05-09T06:47:23.588Z,18.35
2023-05-09T06:49:50.389Z,17.52
2023-05-09T06:52:17.390Z,21.33
2023-05-09T06:54:44.137Z,20.10
2023-05-09T06:57:13.555Z,17.83
2023-05-09T06:59:40.344Z,21.17
2023-05-09T07:02:07.289Z,19.23
2023-05-09T07:04:34.249Z,20.02
2023-05-09T07:07:01.096Z,17.02
2023-05-09T07:09:28.701Z,20.27
2023-05-09T07:11:55.864Z,19.23
2023-05-09T07:14:22.669Z,18.55
2023-05-09T07:16:49.500Z,19.23
2023-05-09T07:19:16.495Z,18.40
2023-05-09T07:21:43.171Z,19.15
2023-05-09T07:24:09.961Z,14.40
2023-05-09T07:26:36.795Z,17.13
2023-05-09T07:29:04.017Z,18.55
2023-05-09T07:31:31.026Z,16.88
2023-05-09T07:33:57.927Z,14.55
2023-05-09T07:36:24.826Z,20.17
2023-05-09T07:38:52.745Z,15.90
2023-05-09T07:41:19.712Z,16.88
2023-05-09T07:43:46.501Z,14.98
2023-05-09T07:46:13.377Z,13.55
2023-05-09T07:48:40.230Z,12.45
2023-05-09T07:51:07.022Z,12.63
2023-05-09T07:53:33.778Z,17.80
2023-05-09T07:56:00.743Z,12.13
2023-05-09T07:58:27.523Z,11.93
2023-05-09T08:00:56.883Z,11.07
2023-05-09T08:03:23.693Z,12.43
2023-05-09T08:05:55.530Z,11.25
2023-05-09T08:08:23.222Z,8.27
2023-05-09T08:10:49.985Z,13.48
2023-05-09T08:13:16.882Z,10.55
2023-05-09T08:15:43.727Z,11.25
2023-05-09T08:18:10.603Z,13.65
2023-05-09T08:20:37.420Z,11.18
2023-05-09T08:23:04.147Z,7.57
2023-05-09T08:25:31.023Z,8.55
2023-05-09T08:27:57.882Z,7.75
2023-05-09T08:30:24.789Z,8.48
2023-05-09T08:32:51.527Z,10.40
2023-05-09T08:35:18.317Z,9.32
2023-05-09T08:37:46.011Z,5.68
2023-05-09T08:40:13.142Z,6.25
2023-05-09T08:42:40.741Z,5.72
2023-05-09T08:45:15.123Z,7.72
2023-05-09T08:47:42.602Z,6.75
2023-05-09T08:50:11.624Z,8.93
2023-05-09T08:52:38.620Z,5.68
2023-05-09T08:55:06.242Z,5.65
2023-05-09T08:57:36.900Z,5.50
2023-05-09T09:00:11.141Z,5.70
2023-05-09T09:02:41.682Z,4.00
2023-05-09T09:05:16.368Z,8.23
2023-05-09T09:07:55.801Z,6.80
2023-05-09T09:10:25.716Z,6.57
2023-05-09T09:12:53.490Z,8.10
2023-05-09T09:15:20.524Z,6.00
2023-05-09T09:17:48.893Z,3.70
2023-05-09T09:20:16.738Z,5.18
2023-05-09T09:22:44.420Z,4.70
2023-05-09T09:25:11.584Z,5.00
2023-05-09T09:27:38.429Z,8.43
2023-05-09T09:30:24.764Z,5.18
2023-05-09T09:32:51.998Z,5.90
2023-05-09T09:35:20.138Z,3.97
2023-05-09T09:37:47.058Z,4.03
2023-05-09T09:40:14.559Z,6.20
2023-05-09T09:42:48.929Z,4.25
2023-05-09T09:45:18.115Z,4.20
2023-05-09T09:47:47.010Z,5.60
2023-05-09T09:50:18.780Z,5.53
2023-05-09T09:52:56.513Z,4.97
2023-05-09T09:55:24.803Z,3.28
2023-05-09T09:57:51.879Z,3.08
2023-05-09T10:00:27.768Z,3.47
2023-05-09T10:02:57.201Z,5.18
2023-05-09T10:05:31.297Z,7.43
2023-05-09T10:08:02.508Z,4.40
2023-05-09T10:10:32.066Z,5.82
2023-05-09T10:13:06.472Z,3.90
2023-05-09T10:15:49.349Z,4.50
2023-05-09T10:18:26.506Z,3.83
2023-05-09T10:20:54.985Z,4.90
2023-05-09T10:23:23.504Z,5.57
2023-05-09T10:26:28.591Z,4.78
2023-05-09T10:28:57.223Z,5.05
2023-05-09T10:31:29.599Z,4.25
2023-05-09T10:33:57.124Z,5.32
2023-05-09T10:36:24.042Z,5.38
2023-05-09T10:38:53.985Z,3.83
2023-05-09T10:41:22.128Z,8.13
2023-05-09T10:43:48.941Z,6.93
2023-05-09T10:46:16.385Z,6.07
2023-05-09T10:48:43.658Z,4.93
2023-05-09T10:51:10.736Z,3.35
2023-05-09T10:53:49.082Z,5.93
2023-05-09T10:56:28.303Z,3.63
2023-05-09T10:58:55.284Z,3.65
2023-05-09T11:01:35.252Z,3.92
2023-05-09T11:04:14.573Z,5.05
2023-05-09T11:06:45.229Z,3.55
2023-05-09T11:09:28.466Z,5.28
2023-05-09T11:12:13.521Z,7.07
2023-05-09T11:14:45.176Z,3.78
2023-05-09T11:17:20.910Z,5.40
2023-05-09T11:19:47.574Z,4.70
2023-05-09T11:22:27.840Z,4.47
2023-05-09T11:25:04.899Z,3.92
2023-05-09T11:27:52.151Z,5.63
2023-05-09T11:30:20.579Z,4.32
2023-05-09T11:32:58.967Z,4.40
2023-05-09T11:35:27.270Z,5.10
2023-05-09T11:38:04.172Z,3.92
2023-05-09T11:40:32.516Z,3.08
2023-05-09T11:43:01.038Z,6.68
2023-05-09T11:45:30.661Z,7.57
2023-05-09T11:47:58.193Z,3.53
2023-05-09T11:50:25.617Z,4.97
2023-05-09T11:52:54.144Z,5.95
2023-05-09T11:55:31.995Z,2.90
2023-05-09T11:57:59.041Z,2.85
2023-05-09T12:00:28.289Z,3.53
2023-05-09T12:02:55.165Z,8.02
2023-05-09T12:05:23.283Z,3.47
2023-05-09T12:07:50.950Z,4.05
2023-05-09T12:10:22.967Z,6.47
2023-05-09T12:12:52.096Z,3.75
2023-05-09T12:15:21.289Z,3.95
2023-05-09T12:18:02.633Z,4.63
2023-05-09T12:20:50.426Z,4.70
2023-05-09T12:23:18.008Z,7.30
2023-05-09T12:25:56.244Z,4.28
2023-05-09T12:28:24.085Z,6.97
2023-05-09T12:30:51.845Z,3.75
2023-05-09T12:33:18.882Z,4.65
2023-05-09T12:36:04.793Z,5.50
2023-05-09T12:38:31.695Z,3.60
2023-05-09T12:41:06.782Z,3.95
2023-05-09T12:43:39.366Z,4.55
2023-05-09T12:46:06.516Z,4.72
2023-05-09T12:48:38.744Z,3.85
2023-05-09T12:51:06.657Z,3.10
2023-05-09T12:53:39.696Z,2.92
2023-05-09T12:56:26.682Z,2.95
2023-05-09T12:58:55.735Z,6.68
2023-05-09T13:01:29.531Z,6.50
2023-05-09T13:04:05.868Z,3.42
2023-05-09T13:06:32.881Z,7.28
2023-05-09T13:09:02.065Z,5.22
2023-05-09T13:11:29.627Z,8.50
2023-05-09T13:13:56.396Z,6.93
2023-05-09T13:16:23.503Z,5.03
2023-05-09T13:18:50.407Z,6.07
2023-05-09T13:21:17.101Z,5.53
2023-05-09T13:23:45.361Z,7.75
2023-05-09T13:26:12.141Z,7.57
2023-05-09T13:28:38.849Z,9.25
2023-05-09T13:31:05.692Z,7.55
2023-05-09T13:33:32.505Z,6.38
2023-05-09T13:35:59.181Z,6.45
2023-05-09T13:38:30.678Z,6.72
2023-05-09T13:40:57.540Z,7.03
2023-05-09T13:43:24.270Z,6.35
2023-05-09T13:45:51.004Z,5.32
2023-05-09T13:48:17.796Z,7.38
2023-05-09T13:50:44.575Z,7.40
2023-05-09T13:53:11.419Z,8.20
2023-05-09T13:55:38.388Z,8.77
2023-05-09T13:58:05.094Z,8.45
2023-05-09T14:00:33.309Z,9.57
2023-05-09T14:03:01.306Z,5.68
2023-05-09T14:05:28.069Z,9.70
2023-05-09T14:07:55.099Z,7.63
2023-05-09T14:10:22.241Z,5.00
2023-05-09T14:12:48.996Z,6.60
2023-05-09T14:15:16.382Z,5.45
2023-05-09T14:17:43.594Z,6.63
2023-05-09T14:20:10.920Z,6.40
2023-05-09T14:22:37.651Z,5.97
2023-05-09T14:25:05.101Z,6.13
2023-05-09T14:27:32.143Z,5.55
2023-05-09T14:29:58.818Z,6.32
2023-05-09T14:32:25.504Z,7.07
2023-05-09T14:34:52.181Z,8.20
2023-05-09T14:37:18.883Z,6.50
2023-05-09T14:39:46.684Z,6.88
2023-05-09T14:42:14.258Z,5.10
2023-05-09T14:44:41.440Z,6.43
2023-05-09T14:47:09.787Z,6.03
2023-05-09T14:49:38.674Z,7.03
2023-05-09T14:52:05.907Z,5.00
2023-05-09T14:54:35.435Z,3.97
2023-05-09T14:57:04.480Z,6.25
2023-05-09T14:59:31.276Z,5.65
2023-05-09T15:01:58.015Z,3.75
2023-05-09T15:04:28.249Z,5.75
2023-05-09T15:06:55.070Z,6.20
2023-05-09T15:09:22.547Z,5.03
2023-05-09T15:11:49.512Z,5.45
2023-05-09T15:14:16.814Z,7.45
2023-05-09T15:16:44.001Z,6.75
2023-05-09T15:19:11.003Z,6.50
2023-05-09T15:21:37.831Z,7.05
2023-05-09T15:24:05.113Z,5.45
2023-05-09T15:26:32.341Z,5.90
2023-05-09T15:28:59.272Z,5.63
2023-05-09T15:31:26.292Z,4.35
2023-05-09T15:33:53.099Z,5.85
2023-05-09T15:36:19.830Z,6.40
2023-05-09T15:38:49.382Z,8.18
2023-05-09T15:41:16.670Z,5.43
2023-05-09T15:43:43.573Z,5.63
2023-05-09T15:46:10.449Z,6.13
2023-05-09T15:48:37.252Z,5.22
2023-05-09T15:51:04.255Z,4.65
2023-05-09T15:53:31.474Z,4.95
2023-05-09T15:55:58.216Z,5.55
2023-05-09T15:58:25.161Z,5.18
2023-05-09T16:00:51.982Z,11.10
2023-05-09T16:03:19.380Z,15.13
2023-05-09T16:05:46.511Z,18.58
2023-05-09T16:08:13.371Z,8.13
2023-05-09T16:10:40.807Z,8.55
2023-05-09T16:13:07.970Z,12.52
2023-05-09T16:15:35.193Z,8.35
2023-05-09T16:18:02.098Z,4.57
2023-05-09T16:20:28.890Z,5.82
2023-05-09T16:22:55.594Z,5.00
2023-05-09T16:25:22.576Z,3.50
2023-05-09T16:27:49.265Z,4.68
2023-05-09T16:30:16.529Z,2.80
2023-05-09T16:32:43.614Z,2.38
2023-05-09T16:35:10.774Z,2.60
2023-05-09T16:37:37.702Z,4.78
2023-05-09T16:40:05.029Z,2.90
2023-05-09T16:42:31.851Z,5.22
2023-05-09T16:44:58.553Z,6.43
2023-05-09T16:47:25.514Z,5.22
2023-05-09T16:49:52.279Z,28.73
2023-05-09T16:52:18.959Z,13.27
2023-05-09T16:54:45.745Z,32.08
2023-05-09T16:57:13.308Z,20.42
2023-05-09T16:59:40.552Z,31.08
2023-05-09T17:02:08.212Z,6.55
2023-05-09T17:04:37.389Z,6.18
2023-05-09T17:07:04.634Z,5.00
2023-05-09T17:09:32.316Z,4.43
2023-05-09T17:11:59.109Z,25.02
2023-05-09T17:14:26.689Z,11.50
2023-05-09T17:16:53.983Z,7.43
2023-05-09T17:19:23.315Z,5.82
2023-05-09T17:21:50.317Z,5.32
2023-05-09T17:24:17.299Z,5.10
2023-05-09T17:26:44.100Z,5.13
2023-05-09T17:29:10.815Z,3.90
2023-05-09T17:31:37.625Z,2.92
2023-05-09T17:34:05.459Z,2.40
2023-05-09T17:36:33.486Z,1.38
2023-05-09T17:39:00.757Z,2.35
2023-05-09T17:41:27.692Z,2.80
2023-05-09T17:43:57.381Z,3.42
2023-05-09T17:46:24.510Z,1.98
2023-05-09T17:48:51.454Z,2.00
2023-05-09T17:51:18.252Z,2.13
2023-05-09T17:53:44.968Z,3.38
2023-05-09T17:56:11.789Z,3.25
2023-05-09T17:58:38.626Z,3.35
2023-05-09T18:01:05.719Z,2.45
2023-05-09T18:03:32.850Z,2.55
2023-05-09T18:06:02.692Z,1.98
2023-05-09T18:08:29.814Z,1.98
2023-05-09T18:10:59.207Z,2.72
2023-05-09T18:13:26.228Z,2.90
2023-05-09T18:15:54.962Z,3.17
2023-05-09T18:18:22.321Z,4.00
2023-05-09T18:20:49.177Z,1.65
2023-05-09T18:23:16.079Z,3.50
2023-05-09T18:25:42.809Z,1.55
2023-05-09T18:28:09.608Z,3.35
2023-05-09T18:30:36.590Z,1.92
2023-05-09T18:33:03.710Z,1.85
2023-05-09T18:35:31.570Z,1.92
2023-05-09T18:37:58.330Z,1.48
2023-05-09T18:40:24.994Z,3.63
2023-05-09T18:42:51.845Z,3.17
2023-05-09T18:45:18.628Z,2.75
2023-05-09T18:47:45.406Z,1.40
2023-05-09T18:50:13.705Z,1.50
2023-05-09T18:52:40.769Z,1.98
2023-05-09T18:55:08.003Z,2.15
2023-05-09T18:57:34.791Z,2.90
2023-05-09T19:00:02.056Z,2.45
2023-05-09T19:02:30.146Z,1.17
2023-05-09T19:04:57.164Z,2.75
2023-05-09T19:07:24.159Z,1.25
2023-05-09T19:09:51.324Z,1.45
2023-05-09T19:12:19.324Z,2.13
2023-05-09T19:14:46.041Z,2.22
2023-05-09T19:17:12.810Z,13.60
2023-05-09T19:19:39.585Z,3.60
2023-05-09T19:22:06.789Z,4.78
2023-05-09T19:24:33.506Z,2.35
2023-05-09T19:27:00.479Z,1.77
2023-05-09T19:29:28.000Z,1.15
2023-05-09T19:31:54.746Z,1.25
2023-05-09T19:34:21.907Z,1.05
2023-05-09T19:36:48.780Z,1.58
2023-05-09T19:39:15.472Z,0.80
2023-05-09T19:41:42.329Z,2.67
2023-05-09T19:44:09.169Z,1.10
2023-05-09T19:46:38.010Z,1.30
2023-05-09T19:49:06.133Z,1.65
2023-05-09T19:51:33.055Z,1.58
2023-05-09T19:53:59.852Z,1.70
2023-05-09T19:56:27.295Z,1.98
2023-05-09T19:58:54.772Z,1.60
2023-05-09T20:01:21.909Z,1.42
2023-05-09T20:03:52.097Z,1.80
2023-05-09T20:06:19.022Z,1.65
2023-05-09T20:08:46.909Z,0.85
2023-05-09T20:11:14.699Z,1.42
2023-05-09T20:13:42.893Z,1.73
2023-05-09T20:16:09.694Z,2.50
2023-05-09T20:18:36.567Z,2.53
2023-05-09T20:21:03.755Z,1.45
2023-05-09T20:23:31.133Z,3.90
2023-05-09T20:25:57.961Z,1.98
2023-05-09T20:28:24.808Z,1.42
2023-05-09T20:30:51.627Z,2.10
2023-05-09T20:33:18.958Z,1.98
2023-05-09T20:35:45.784Z,1.88
2023-05-09T20:38:12.628Z,1.55
2023-05-09T20:40:40.332Z,3.05
2023-05-09T20:43:07.245Z,1.73
2023-05-09T20:45:34.345Z,1.73
2023-05-09T20:48:01.927Z,3.45
2023-05-09T20:50:28.696Z,3.45
2023-05-09T20:52:55.553Z,3.05
2023-05-09T20:55:22.421Z,2.05
2023-05-09T20:57:49.244Z,2.35
2023-05-09T21:00:16.505Z,1.70
2023-05-09T21:02:43.581Z,1.83
2023-05-09T21:05:10.427Z,1.58
2023-05-09T21:07:37.117Z,2.80
2023-05-09T21:10:04.170Z,2.30
2023-05-09T21:12:32.699Z,2.08
2023-05-09T21:14:59.467Z,2.95
2023-05-09T21:17:26.305Z,2.65
2023-05-09T21:19:53.180Z,2.33
2023-05-09T21:22:19.947Z,2.10
2023-05-09T21:24:46.697Z,2.85
2023-05-09T21:27:13.854Z,2.97
2023-05-09T21:29:40.649Z,4.47
2023-05-09T21:32:07.332Z,4.22
2023-05-09T21:34:34.064Z,2.53
2023-05-09T21:37:00.729Z,1.90
2023-05-09T21:39:27.395Z,3.72
2023-05-09T21:41:54.055Z,2.92
2023-05-09T21:44:20.768Z,3.97
2023-05-09T21:46:47.547Z,2.38
2023-05-09T21:49:16.673Z,2.35
2023-05-09T21:51:43.562Z,3.10
2023-05-09T21:54:10.949Z,2.78
2023-05-09T21:56:37.918Z,2.95
2023-05-09T21:59:04.835Z,3.13
2023-05-09T22:01:31.672Z,3.38
2023-05-09T22:03:58.764Z,3.45
2023-05-09T22:06:25.707Z,3.15
2023-05-09T22:08:52.479Z,2.75
2023-05-09T22:11:19.252Z,2.67
2023-05-09T22:13:45.974Z,3.35
2023-05-09T22:16:13.269Z,2.92
2023-05-09T22:18:42.278Z,2.75
2023-05-09T22:21:08.945Z,3.10
2023-05-09T22:23:35.697Z,3.03
2023-05-09T22:26:04.940Z,2.40
2023-05-09T22:28:31.681Z,2.95
2023-05-09T22:30:58.395Z,3.67
2023-05-09T22:33:25.074Z,4.47
2023-05-09T22:35:51.797Z,3.08
2023-05-09T22:38:18.521Z,2.53
2023-05-09T22:40:45.303Z,3.72
2023-05-09T22:43:12.610Z,4.78
2023-05-09T22:45:39.325Z,3.00
2023-05-09T22:48:06.453Z,4.95
2023-05-09T22:50:33.282Z,4.22
2023-05-09T22:53:01.374Z,3.80
2023-05-09T22:55:28.553Z,4.40
2023-05-09T22:57:55.247Z,3.65
2023-05-09T23:00:22.035Z,3.78
2023-05-09T23:02:48.970Z,3.72
2023-05-09T23:05:15.889Z,5.28
2023-05-09T23:07:42.572Z,3.53
2023-05-09T23:10:10.456Z,4.20
2023-05-09T23:12:38.044Z,6.00
2023-05-09T23:15:07.318Z,4.03
2023-05-09T23:17:34.072Z,5.13
2023-05-09T23:20:01.572Z,4.88
2023-05-09T23:22:28.320Z,5.38
2023-05-09T23:24:55.184Z,4.72
2023-05-09T23:27:22.548Z,7.07
2023-05-09T23:29:49.380Z,4.68
2023-05-09T23:32:16.224Z,5.07
2023-05-09T23:34:42.949Z,4.20
2023-05-09T23:37:09.670Z,4.57
2023-05-09T23:39:36.347Z,6.28
2023-05-09T23:42:04.101Z,5.65
2023-05-09T23:44:31.065Z,6.28
2023-05-09T23:46:57.806Z,5.72
2023-05-09T23:49:24.556Z,5.07
2023-05-09T23:51:51.831Z,6.22
2023-05-09T23:54:18.645Z,5.07
2023-05-09T23:56:45.315Z,4.80
2023-05-09T23:59:12.024Z,4.85
